createdAt,value
2023-02-05T00:01:22.133Z,99021.22
2023-02-05T00:03:49.477Z,99017.31
2023-02-05T00:06:16.302Z,99024.44
2023-02-05T00:08:43.101Z,99015.06
2023-02-05T00:11:09.887Z,99015.34
2023-02-05T00:13:38.309Z,99013.38
2023-02-05T00:16:10.128Z,99020.25
2023-02-05T00:18:37.563Z,99020.03
2023-02-05T00:21:05.753Z,99027.66
2023-02-05T00:23:32.863Z,99022.97
2023-02-05T00:25:59.678Z,99022.25
2023-02-05T00:28:26.490Z,99022.25
2023-02-05T00:30:53.347Z,99014.84
2023-02-05T00:33:21.979Z,99019.03
2023-02-05T00:35:49.712Z,99015.81
2023-02-05T00:38:17.372Z,99014.84
2023-02-05T00:40:44.215Z,99017.28
2023-02-05T00:43:10.949Z,99014.56
2023-02-05T00:45:37.686Z,99019.53
2023-02-05T00:48:05.139Z,99021.50
2023-02-05T00:50:32.514Z,99019.75
2023-02-05T00:52:59.325Z,99022.47
2023-02-05T00:55:26.157Z,99025.19
2023-02-05T00:57:52.822Z,99030.38
2023-02-05T01:00:19.877Z,99026.19
2023-02-05T01:02:46.679Z,99021.50
2023-02-05T01:05:13.610Z,99025.91
2023-02-05T01:07:40.717Z,99021.72
2023-02-05T01:10:07.954Z,99018.50
2023-02-05T01:12:34.864Z,99014.56
2023-02-05T01:15:02.428Z,99010.88
2023-02-05T01:17:29.194Z,99003.25
2023-02-05T01:19:56.128Z,99002.00
2023-02-05T01:22:23.001Z,99009.63
2023-02-05T01:24:50.237Z,99006.69
2023-02-05T01:27:17.063Z,98998.56
2023-02-05T01:29:43.801Z,99000.53
2023-02-05T01:32:10.663Z,98997.06
2023-02-05T01:34:37.386Z,98987.44
2023-02-05T01:37:04.158Z,98980.81
2023-02-05T01:39:30.840Z,98985.47
2023-02-05T01:41:57.748Z,98979.81
2023-02-05T01:44:25.163Z,98981.06
2023-02-05T01:46:54.015Z,98976.88
2023-02-05T01:49:25.516Z,98982.03
2023-02-05T01:51:54.085Z,98977.84
2023-02-05T01:54:23.013Z,98974.91
2023-02-05T01:57:01.050Z,98970.72
2023-02-05T01:59:29.612Z,98974.41
2023-02-05T02:01:56.657Z,98968.25
2023-02-05T02:04:46.352Z,98967.75
2023-02-05T02:07:15.437Z,98968.25
2023-02-05T02:09:43.576Z,98967.00
2023-02-05T02:12:12.742Z,98966.28
2023-02-05T02:14:41.325Z,98970.44
2023-02-05T02:17:09.600Z,98973.16
2023-02-05T02:19:39.824Z,98980.56
2023-02-05T02:22:13.089Z,98966.03
2023-02-05T02:24:52.248Z,98961.34
2023-02-05T02:27:22.070Z,98963.78
2023-02-05T02:30:05.866Z,98955.19
2023-02-05T02:32:40.679Z,98942.84
2023-02-05T02:35:12.700Z,98942.84
2023-02-05T02:37:52.676Z,98938.16
2023-02-05T02:40:28.908Z,98933.25
2023-02-05T02:43:10.407Z,98928.56
2023-02-05T02:45:43.244Z,98927.34
2023-02-05T02:48:10.731Z,98928.09
2023-02-05T02:50:41.375Z,98928.34
2023-02-05T02:53:11.506Z,98932.00
2023-02-05T02:55:43.659Z,98935.47
2023-02-05T02:58:23.201Z,98937.94
2023-02-05T03:00:53.698Z,98920.22
2023-02-05T03:03:22.705Z,98926.59
2023-02-05T03:05:50.024Z,98936.19
2023-02-05T03:08:22.439Z,98940.41
2023-02-05T03:10:59.862Z,98936.97
2023-02-05T03:13:29.439Z,98927.34
2023-02-05T03:16:00.590Z,98932.00
2023-02-05T03:18:27.732Z,98922.41
2023-02-05T03:20:57.660Z,98920.22
2023-02-05T03:23:27.137Z,98917.00
2023-02-05T03:25:54.400Z,98911.34
2023-02-05T03:28:28.069Z,98896.06
2023-02-05T03:30:57.779Z,98885.22
2023-02-05T03:33:27.430Z,98876.13
2023-02-05T03:36:27.986Z,98882.28
2023-02-05T03:39:01.660Z,98887.19
2023-02-05T03:41:56.654Z,98881.28
2023-02-05T03:44:30.352Z,98880.31
2023-02-05T03:47:09.654Z,98878.09
2023-02-05T03:49:43.368Z,98877.84
2023-02-05T03:52:17.171Z,98889.66
2023-02-05T03:55:08.653Z,98885.72
2023-02-05T03:57:49.286Z,98884.50
2023-02-05T04:00:17.018Z,98883.03
2023-02-05T04:02:46.530Z,98884.50
2023-02-05T04:05:22.873Z,98899.78
2023-02-05T04:07:51.993Z,98889.66
2023-02-05T04:10:20.968Z,98888.44
2023-02-05T04:12:48.549Z,98897.31
2023-02-05T04:15:16.696Z,98894.34
2023-02-05T04:17:47.258Z,98893.34
2023-02-05T04:20:14.265Z,98902.94
2023-02-05T04:22:41.586Z,98903.22
2023-02-05T04:25:08.667Z,98917.72
2023-02-05T04:27:35.679Z,98907.91
2023-02-05T04:30:04.170Z,98918.47
2023-02-05T04:32:34.262Z,98913.78
2023-02-05T04:35:01.349Z,98916.25
2023-02-05T04:37:28.051Z,98925.34
2023-02-05T04:39:54.901Z,98922.41
2023-02-05T04:42:21.599Z,98932.50
2023-02-05T04:44:48.359Z,98937.44
2023-02-05T04:47:15.156Z,98934.25
2023-02-05T04:49:42.057Z,98942.63
2023-02-05T04:52:08.756Z,98950.97
2023-02-05T04:54:37.438Z,98944.81
2023-02-05T04:57:04.144Z,98942.38
2023-02-05T04:59:31.673Z,98939.66
2023-02-05T05:01:59.507Z,98947.31
2023-02-05T05:04:26.640Z,98941.16
2023-02-05T05:06:53.296Z,98938.44
2023-02-05T05:09:24.065Z,98932.50
2023-02-05T05:11:54.231Z,98943.59
2023-02-05T05:14:21.096Z,98944.81
2023-02-05T05:16:48.863Z,98945.09
2023-02-05T05:19:15.916Z,98945.56
2023-02-05T05:21:42.648Z,98940.88
2023-02-05T05:24:09.511Z,98941.66
2023-02-05T05:26:36.283Z,98939.66
2023-02-05T05:29:03.182Z,98945.81
2023-02-05T05:31:29.897Z,98941.38
2023-02-05T05:33:56.689Z,98942.63
2023-02-05T05:36:23.458Z,98935.47
2023-02-05T05:38:50.186Z,98937.44
2023-02-05T05:41:41.643Z,98932.75
2023-02-05T05:44:09.358Z,98925.63
2023-02-05T05:46:36.614Z,98914.78
2023-02-05T05:49:04.157Z,98922.91
2023-02-05T05:51:32.622Z,98914.78
2023-02-05T05:53:59.522Z,98920.19
2023-02-05T05:56:26.217Z,98917.72
2023-02-05T05:58:53.012Z,98909.59
2023-02-05T06:01:22.018Z,98907.63
2023-02-05T06:03:49.515Z,98915.00
2023-02-05T06:06:16.278Z,98930.81
2023-02-05T06:08:43.049Z,98934.25
2023-02-05T06:11:09.764Z,98946.31
2023-02-05T06:13:36.643Z,98942.84
2023-02-05T06:16:03.984Z,98947.06
2023-02-05T06:18:31.154Z,98953.69
2023-02-05T06:20:58.133Z,98954.47
2023-02-05T06:23:24.962Z,98953.44
2023-02-05T06:25:51.632Z,98957.63
2023-02-05T06:28:18.593Z,98958.38
2023-02-05T06:30:45.450Z,98950.75
2023-02-05T06:33:12.994Z,98952.22
2023-02-05T06:35:41.166Z,98941.38
2023-02-05T06:38:08.551Z,98945.59
2023-02-05T06:40:35.290Z,98947.78
2023-02-05T06:43:02.034Z,98940.63
2023-02-05T06:45:28.739Z,98939.91
2023-02-05T06:47:56.227Z,98950.00
2023-02-05T06:50:23.505Z,98951.47
2023-02-05T06:52:51.315Z,98954.19
2023-02-05T06:55:18.544Z,98961.84
2023-02-05T06:57:45.308Z,98966.75
2023-02-05T07:00:12.734Z,98968.00
2023-02-05T07:02:39.512Z,98973.41
2023-02-05T07:05:07.026Z,98970.78
2023-02-05T07:07:33.730Z,98972.31
2023-02-05T07:10:00.979Z,98975.41
2023-02-05T07:12:27.907Z,98962.50
2023-02-05T07:14:55.416Z,98964.56
2023-02-05T07:17:22.348Z,98958.06
2023-02-05T07:19:49.150Z,98939.81
2023-02-05T07:22:16.303Z,98952.78
2023-02-05T07:24:43.085Z,98956.72
2023-02-05T07:27:09.952Z,98959.66
2023-02-05T07:29:38.018Z,98958.19
2023-02-05T07:32:05.098Z,98962.16
2023-02-05T07:34:31.864Z,98958.78
2023-02-05T07:37:00.134Z,98957.81
2023-02-05T07:39:29.674Z,98956.84
2023-02-05T07:41:56.677Z,98958.06
2023-02-05T07:44:34.881Z,98958.81
2023-02-05T07:47:02.160Z,98946.81
2023-02-05T07:49:28.841Z,98947.03
2023-02-05T07:51:55.598Z,98947.72
2023-02-05T07:54:22.305Z,98961.25
2023-02-05T07:56:49.104Z,98957.03
2023-02-05T07:59:16.044Z,98949.88
2023-02-05T08:01:42.876Z,98946.94
2023-02-05T08:04:09.772Z,98952.09
2023-02-05T08:06:36.664Z,98942.31
2023-02-05T08:09:03.648Z,98942.00
2023-02-05T08:11:32.545Z,98944.13
2023-02-05T08:14:01.149Z,98961.03
2023-02-05T08:16:27.923Z,98957.06
2023-02-05T08:18:54.692Z,98958.34
2023-02-05T08:21:22.047Z,98966.94
2023-02-05T08:23:49.245Z,98969.00
2023-02-05T08:26:16.282Z,98966.88
2023-02-05T08:28:43.727Z,98959.09
2023-02-05T08:31:12.863Z,98951.09
2023-02-05T08:33:39.814Z,98945.84
2023-02-05T08:36:07.364Z,98944.97
2023-02-05T08:38:34.170Z,98946.72
2023-02-05T08:41:13.432Z,98946.47
2023-02-05T08:43:44.557Z,98944.50
2023-02-05T08:46:13.155Z,98940.81
2023-02-05T08:48:40.092Z,98937.84
2023-02-05T08:51:08.417Z,98941.56
2023-02-05T08:53:35.373Z,98937.41
2023-02-05T08:56:03.838Z,98947.44
2023-02-05T08:58:30.695Z,98942.63
2023-02-05T09:01:06.490Z,98938.41
2023-02-05T09:03:33.899Z,98934.03
2023-02-05T09:06:01.323Z,98936.50
2023-02-05T09:08:30.384Z,98938.25
2023-02-05T09:10:57.784Z,98921.28
2023-02-05T09:13:25.247Z,98934.06
2023-02-05T09:15:52.238Z,98923.78
2023-02-05T09:18:19.334Z,98920.44
2023-02-05T09:20:48.112Z,98941.16
2023-02-05T09:23:16.700Z,98935.28
2023-02-05T09:25:43.581Z,98938.50
2023-02-05T09:28:13.071Z,98940.75
2023-02-05T09:30:41.305Z,98938.28
2023-02-05T09:33:08.926Z,98933.41
2023-02-05T09:35:36.514Z,98924.81
2023-02-05T09:38:03.653Z,98927.28
2023-02-05T09:40:34.881Z,98921.66
2023-02-05T09:43:20.841Z,98900.00
2023-02-05T09:45:50.585Z,98894.09
2023-02-05T09:48:32.640Z,98900.50
2023-02-05T09:50:59.965Z,98914.53
2023-02-05T09:53:33.588Z,98919.19
2023-02-05T09:56:01.999Z,98918.72
2023-02-05T09:58:37.990Z,98917.97
2023-02-05T10:01:10.243Z,98917.50
2023-02-05T10:03:47.059Z,98911.31
2023-02-05T10:06:19.995Z,98908.84
2023-02-05T10:09:02.581Z,98914.25
2023-02-05T10:11:41.479Z,98907.56
2023-02-05T10:14:26.755Z,98912.25
2023-02-05T10:17:19.699Z,98917.91
2023-02-05T10:19:53.232Z,98912.50
2023-02-05T10:22:35.149Z,98914.72
2023-02-05T10:25:01.895Z,98914.72
2023-02-05T10:27:45.296Z,98905.09
2023-02-05T10:30:16.483Z,98907.31
2023-02-05T10:32:59.209Z,98911.47
2023-02-05T10:35:39.193Z,98906.06
2023-02-05T10:38:16.388Z,98897.19
2023-02-05T10:40:46.627Z,98895.22
2023-02-05T10:43:29.833Z,98897.66
2023-02-05T10:45:57.032Z,98891.91
2023-02-05T10:48:26.384Z,98892.63
2023-02-05T10:51:00.343Z,98884.06
2023-02-05T10:53:28.739Z,98893.69
2023-02-05T10:55:57.052Z,98888.44
2023-02-05T10:58:45.655Z,98874.97
2023-02-05T11:01:24.076Z,98872.63
2023-02-05T11:03:59.875Z,98872.34
2023-02-05T11:06:29.123Z,98874.03
2023-02-05T11:08:56.224Z,98863.41
2023-02-05T11:11:29.183Z,98858.47
2023-02-05T11:14:01.008Z,98857.50
2023-02-05T11:16:42.784Z,98858.91
2023-02-05T11:19:24.829Z,98852.31
2023-02-05T11:21:59.099Z,98832.38
2023-02-05T11:24:32.982Z,98837.09
2023-02-05T11:27:26.696Z,98827.72
2023-02-05T11:29:55.232Z,98834.59
2023-02-05T11:32:29.821Z,98830.63
2023-02-05T11:35:25.798Z,98822.41
2023-02-05T11:38:08.544Z,98823.06
2023-02-05T11:40:36.317Z,98830.38
2023-02-05T11:43:15.613Z,98823.00
2023-02-05T11:45:48.480Z,98815.13
2023-02-05T11:48:37.196Z,98821.63
2023-02-05T11:51:05.308Z,98823.34
2023-02-05T11:53:34.937Z,98827.13
2023-02-05T11:56:05.051Z,98824.41
2023-02-05T11:58:36.940Z,98832.56
2023-02-05T12:01:24.065Z,98832.81
2023-02-05T12:04:01.488Z,98827.94
2023-02-05T12:06:35.947Z,98819.81
2023-02-05T12:09:03.627Z,98811.41
2023-02-05T12:12:08.093Z,98801.31
2023-02-05T12:14:41.193Z,98785.03
2023-02-05T12:17:28.224Z,98783.56
2023-02-05T12:20:10.125Z,98778.41
2023-02-05T12:22:55.255Z,98774.69
2023-02-05T12:25:42.702Z,98769.03
2023-02-05T12:28:35.022Z,98771.28
2023-02-05T12:31:48.208Z,98765.84
2023-02-05T12:34:18.924Z,98763.63
2023-02-05T12:37:09.532Z,98763.66
2023-02-05T12:39:54.257Z,98784.13
2023-02-05T12:42:30.324Z,98778.03
2023-02-05T12:45:09.286Z,98774.69
2023-02-05T12:47:48.569Z,98776.69
2023-02-05T12:50:52.537Z,98774.22
2023-02-05T12:53:33.632Z,98766.84
2023-02-05T12:56:19.503Z,98763.88
2023-02-05T12:58:49.406Z,98752.81
2023-02-05T13:01:22.958Z,98739.75
2023-02-05T13:03:54.142Z,98731.88
2023-02-05T13:06:27.003Z,98738.50
2023-02-05T13:08:59.412Z,98735.03
2023-02-05T13:11:32.171Z,98738.75
2023-02-05T13:14:18.257Z,98739.97
2023-02-05T13:16:55.748Z,98734.81
2023-02-05T13:19:26.275Z,98735.78
2023-02-05T13:22:14.997Z,98728.16
2023-02-05T13:25:04.948Z,98737.00
2023-02-05T13:27:54.249Z,98724.22
2023-02-05T13:30:26.271Z,98740.72
2023-02-05T13:32:56.026Z,98725.72
2023-02-05T13:35:23.914Z,98735.31
2023-02-05T13:38:10.169Z,98739.00
2023-02-05T13:41:10.977Z,98737.25
2023-02-05T13:44:00.693Z,98731.59
2023-02-05T13:46:58.264Z,98734.28
2023-02-05T13:49:43.286Z,98722.22
2023-02-05T13:52:10.122Z,98729.31
2023-02-05T13:54:55.479Z,98722.88
2023-02-05T13:57:47.641Z,98724.91
2023-02-05T14:00:14.296Z,98731.25
2023-02-05T14:02:44.010Z,98736.91
2023-02-05T14:05:13.743Z,98727.78
2023-02-05T14:07:47.172Z,98721.16
2023-02-05T14:10:36.849Z,98713.78
2023-02-05T14:13:31.103Z,98724.41
2023-02-05T14:16:00.499Z,98711.63
2023-02-05T14:18:48.438Z,98705.69
2023-02-05T14:21:30.598Z,98699.75
2023-02-05T14:24:02.876Z,98695.31
2023-02-05T14:26:49.162Z,98687.94
2023-02-05T14:29:48.295Z,98695.81
2023-02-05T14:32:30.806Z,98700.25
2023-02-05T14:35:00.955Z,98703.22
2023-02-05T14:37:39.370Z,98684.63
2023-02-05T14:40:37.197Z,98674.00
2023-02-05T14:43:27.644Z,98672.19
2023-02-05T14:45:55.062Z,98669.00
2023-02-05T14:48:25.388Z,98665.19
2023-02-05T14:51:28.969Z,98679.25
2023-02-05T14:54:00.427Z,98681.19
2023-02-05T14:56:34.315Z,98693.09
2023-02-05T14:59:05.285Z,98695.66
2023-02-05T15:01:35.168Z,98704.09
2023-02-05T15:04:03.563Z,98705.81
2023-02-05T15:06:37.864Z,98698.94
2023-02-05T15:09:13.565Z,98709.25
2023-02-05T15:11:56.906Z,98716.13
2023-02-05T15:14:25.490Z,98720.03
2023-02-05T15:17:27.884Z,98720.78
2023-02-05T15:19:59.774Z,98717.84
2023-02-05T15:22:35.430Z,98712.94
2023-02-05T15:25:05.383Z,98723.25
2023-02-05T15:27:41.776Z,98722.53
2023-02-05T15:30:10.058Z,98721.06
2023-02-05T15:32:57.812Z,98726.19
2023-02-05T15:35:26.500Z,98727.94
2023-02-05T15:37:55.969Z,98719.56
2023-02-05T15:40:27.538Z,98723.50
2023-02-05T15:43:00.823Z,98718.84
2023-02-05T15:45:39.827Z,98727.69
2023-02-05T15:48:11.866Z,98719.09
2023-02-05T15:51:10.261Z,98722.53
2023-02-05T15:53:41.484Z,98716.88
2023-02-05T15:56:16.093Z,98715.41
2023-02-05T15:58:49.240Z,98727.00
2023-02-05T16:01:28.363Z,98723.78
2023-02-05T16:03:55.376Z,98730.66
2023-02-05T16:06:23.374Z,98727.22
2023-02-05T16:08:55.664Z,98722.78
2023-02-05T16:11:33.823Z,98718.84
2023-02-05T16:14:07.340Z,98725.69
2023-02-05T16:16:36.406Z,98737.22
2023-02-05T16:19:05.237Z,98735.00
2023-02-05T16:22:05.431Z,98740.41
2023-02-05T16:24:34.434Z,98748.28
2023-02-05T16:27:06.195Z,98753.66
2023-02-05T16:29:47.593Z,98749.41
2023-02-05T16:32:30.419Z,98761.47
2023-02-05T16:34:58.021Z,98761.25
2023-02-05T16:37:30.273Z,98766.13
2023-02-05T16:39:58.642Z,98766.09
2023-02-05T16:42:31.800Z,98761.44
2023-02-05T16:45:11.265Z,98765.63
2023-02-05T16:47:38.154Z,98762.91
2023-02-05T16:50:34.522Z,98772.50
2023-02-05T16:53:01.409Z,98772.75
2023-02-05T16:55:28.386Z,98779.16
2023-02-05T16:57:56.398Z,98774.22
2023-02-05T17:00:25.911Z,98782.09
2023-02-05T17:02:55.482Z,98787.72
2023-02-05T17:05:23.737Z,98779.63
2023-02-05T17:08:00.124Z,98778.66
2023-02-05T17:10:29.026Z,98782.56
2023-02-05T17:13:05.486Z,98785.25
2023-02-05T17:15:34.959Z,98787.22
2023-02-05T17:18:20.422Z,98784.09
2023-02-05T17:20:47.225Z,98784.09
2023-02-05T17:23:15.680Z,98788.41
2023-02-05T17:25:54.821Z,98787.47
2023-02-05T17:28:25.666Z,98792.91
2023-02-05T17:30:53.805Z,98790.69
2023-02-05T17:33:25.035Z,98784.56
2023-02-05T17:35:52.065Z,98796.59
2023-02-05T17:38:20.574Z,98795.13
2023-02-05T17:40:47.606Z,98800.03
2023-02-05T17:43:14.432Z,98794.13
2023-02-05T17:45:43.001Z,98804.47
2023-02-05T17:48:10.340Z,98801.97
2023-02-05T17:50:37.506Z,98808.13
2023-02-05T17:53:04.604Z,98815.03
2023-02-05T17:55:31.859Z,98805.41
2023-02-05T17:57:59.195Z,98815.50
2023-02-05T18:00:29.025Z,98814.50
2023-02-05T18:02:55.833Z,98824.09
2023-02-05T18:05:23.232Z,98821.63
2023-02-05T18:07:59.687Z,98812.06
2023-02-05T18:10:29.489Z,98815.22
2023-02-05T18:12:56.365Z,98807.81
2023-02-05T18:15:24.406Z,98805.56
2023-02-05T18:17:51.979Z,98813.47
2023-02-05T18:20:20.948Z,98815.66
2023-02-05T18:22:49.154Z,98812.22
2023-02-05T18:25:16.265Z,98812.97
2023-02-05T18:27:43.096Z,98805.56
2023-02-05T18:30:10.400Z,98804.56
2023-02-05T18:32:37.266Z,98809.72
2023-02-05T18:35:04.171Z,98816.63
2023-02-05T18:37:31.698Z,98811.44
2023-02-05T18:39:58.436Z,98804.28
2023-02-05T18:42:25.297Z,98807.47
2023-02-05T18:44:51.963Z,98815.34
2023-02-05T18:47:18.761Z,98814.34
2023-02-05T18:49:45.435Z,98807.19
2023-02-05T18:52:13.982Z,98807.91
2023-02-05T18:54:41.020Z,98804.97
2023-02-05T18:57:07.890Z,98819.78
2023-02-05T18:59:34.792Z,98816.56
2023-02-05T19:02:01.614Z,98818.75
2023-02-05T19:04:32.853Z,98818.03
2023-02-05T19:06:59.757Z,98822.22
2023-02-05T19:09:27.455Z,98823.69
2023-02-05T19:11:55.363Z,98830.59
2023-02-05T19:14:23.772Z,98835.53
2023-02-05T19:16:50.769Z,98842.41
2023-02-05T19:19:21.258Z,98847.84
2023-02-05T19:21:51.261Z,98847.09
2023-02-05T19:24:18.897Z,98849.31
2023-02-05T19:26:45.756Z,98850.78
2023-02-05T19:29:14.912Z,98840.91
2023-02-05T19:31:42.272Z,98846.09
2023-02-05T19:34:09.638Z,98841.41
2023-02-05T19:36:36.983Z,98840.16
2023-02-05T19:39:05.615Z,98842.38
2023-02-05T19:41:33.943Z,98839.13
2023-02-05T19:44:04.097Z,98852.72
2023-02-05T19:46:33.421Z,98852.72
2023-02-05T19:49:02.476Z,98850.50
2023-02-05T19:51:29.638Z,98845.81
2023-02-05T19:53:57.734Z,98841.13
2023-02-05T19:56:25.407Z,98841.41
2023-02-05T19:58:54.391Z,98833.50
2023-02-05T20:01:24.382Z,98829.53
2023-02-05T20:03:53.390Z,98827.06
2023-02-05T20:06:21.422Z,98829.28
2023-02-05T20:08:48.500Z,98830.75
2023-02-05T20:11:16.008Z,98835.66
2023-02-05T20:13:42.937Z,98834.44
2023-02-05T20:16:13.808Z,98835.91
2023-02-05T20:18:41.520Z,98836.66
2023-02-05T20:21:09.961Z,98841.34
2023-02-05T20:23:36.953Z,98852.94
2023-02-05T20:26:04.618Z,98857.13
2023-02-05T20:28:33.450Z,98848.47
2023-02-05T20:31:18.812Z,98850.91
2023-02-05T20:33:48.625Z,98857.09
2023-02-05T20:36:15.423Z,98864.72
2023-02-05T20:38:42.104Z,98864.72
2023-02-05T20:41:14.385Z,98868.19
2023-02-05T20:43:41.316Z,98866.94
2023-02-05T20:46:08.549Z,98867.91
2023-02-05T20:48:35.348Z,98871.59
2023-02-05T20:51:07.376Z,98882.94
2023-02-05T20:53:35.399Z,98874.06
2023-02-05T20:56:14.494Z,98876.78
2023-02-05T20:58:41.506Z,98874.81
2023-02-05T21:01:17.323Z,98876.31
2023-02-05T21:03:46.562Z,98871.59
2023-02-05T21:06:15.653Z,98862.22
2023-02-05T21:08:45.459Z,98870.38
2023-02-05T21:11:16.500Z,98872.56
2023-02-05T21:13:45.229Z,98870.59
2023-02-05T21:16:13.492Z,98876.75
2023-02-05T21:18:40.456Z,98890.56
2023-02-05T21:21:16.451Z,98895.28
2023-02-05T21:23:43.893Z,98903.66
2023-02-05T21:26:38.678Z,98897.47
2023-02-05T21:29:10.107Z,98901.66
2023-02-05T21:31:44.002Z,98898.22
2023-02-05T21:34:14.325Z,98912.78
2023-02-05T21:36:41.288Z,98906.84
2023-02-05T21:39:09.487Z,98911.53
2023-02-05T21:41:36.406Z,98921.16
2023-02-05T21:44:03.196Z,98926.06
2023-02-05T21:46:30.188Z,98928.78
2023-02-05T21:48:58.717Z,98929.28
2023-02-05T21:51:28.311Z,98932.75
2023-02-05T21:53:58.752Z,98930.75
2023-02-05T21:56:28.717Z,98923.84
2023-02-05T21:58:55.992Z,98925.56
2023-02-05T22:01:25.221Z,98924.59
2023-02-05T22:03:54.658Z,98930.03
2023-02-05T22:06:22.841Z,98927.56
2023-02-05T22:08:51.014Z,98925.59
2023-02-05T22:11:21.780Z,98924.84
2023-02-05T22:13:49.320Z,98932.50
2023-02-05T22:16:21.351Z,98918.22
2023-02-05T22:18:48.828Z,98918.47
2023-02-05T22:21:18.080Z,98921.19
2023-02-05T22:23:49.136Z,98917.47
2023-02-05T22:26:18.334Z,98924.41
2023-02-05T22:28:45.342Z,98926.84
2023-02-05T22:31:14.216Z,98926.84
2023-02-05T22:33:42.088Z,98928.81
2023-02-05T22:36:10.570Z,98938.94
2023-02-05T22:38:38.642Z,98935.72
2023-02-05T22:41:14.501Z,98947.31
2023-02-05T22:43:41.386Z,98967.28
2023-02-05T22:46:10.439Z,98965.81
2023-02-05T22:48:38.351Z,98968.03
2023-02-05T22:51:06.700Z,98974.19
2023-02-05T22:53:33.876Z,98978.38
2023-02-05T22:56:01.975Z,98976.19
2023-02-05T22:58:29.124Z,98978.88
2023-02-05T23:00:55.801Z,98975.44
2023-02-05T23:03:23.628Z,98975.66
2023-02-05T23:05:50.870Z,98986.53
2023-02-05T23:08:17.640Z,98986.31
2023-02-05T23:10:44.402Z,98984.84
2023-02-05T23:13:11.171Z,98994.94
2023-02-05T23:15:37.824Z,98992.97
2023-02-05T23:18:04.789Z,98991.00
2023-02-05T23:20:32.450Z,98992.25
2023-02-05T23:22:59.200Z,98993.44
2023-02-05T23:25:25.941Z,98995.44
2023-02-05T23:27:52.751Z,99006.28
2023-02-05T23:30:19.594Z,99006.78
2023-02-05T23:32:46.557Z,99002.84
2023-02-05T23:35:13.289Z,99000.38
2023-02-05T23:37:40.136Z,98998.41
2023-02-05T23:40:07.369Z,98997.66
2023-02-05T23:42:34.189Z,98998.41
2023-02-05T23:45:00.871Z,98990.75
2023-02-05T23:47:27.582Z,98994.22
2023-02-05T23:49:54.322Z,98991.97
2023-02-05T23:52:21.057Z,98992.72
2023-02-05T23:54:47.672Z,98996.69
2023-02-05T23:57:14.405Z,98998.66
2023-02-05T23:59:41.083Z,98996.69
